Historyczne dane pomiarowe

Dodano dane terminowe – wersja testowa.

Dane z okresu 1951-2019

Wersja bazy: 1.34 [2019-03-16, lista zmian], aktualizacja planowana na 2019-04-15

Dane meteo z obszaru Polski uzyskane na podstawie danych udostępnionych przez Instytut Meteorologii i Gospodarki Wodnej – Państwowy Instytut Badawczy.

 

Wybierz Datę:    

       

TemperaturaWilgotnośćWiatrCiśnienieOpadyŚniegCzas trwania zjawisk
 Stacja t tx tn tng RH VA  wxwx mslp ppp RRR   cm mm wxwxwxwxwxwxwx
1996-08-13 18.3 23.7 16.1 13.7 76.0- 6.3 2.7---- 3.5------------
1996-08-14 17.1 21.5 15.0 13.7 84.8- 8.0 1.0---- 22.5------------
1996-08-15 15.1 17.0 13.7 12.7 86.0- 8.0 5.7---- 25.5------------
1996-08-16 16.5 19.6 14.7 13.6 86.0- 6.3 1.7---- 3.0------------
1996-08-17 18.4 23.0 13.2 10.0 82.5- 5.0 1.0---- 0.0------------
1996-08-18 18.0 23.5 12.8 11.5 85.0- 3.0 2.0---- 0.0------------
1996-08-19 17.2 22.0 13.3 12.7 77.3- 5.0 1.3---- 0.0------------
1996-08-20 18.0 23.0 13.3 11.7 67.8- 4.7 1.0---- 0.0------------
1996-08-21 19.8 28.9 13.0 12.2 68.5- 4.0 3.3---- 0.0------------
1996-08-22 18.7 25.0 13.7 10.3 79.5- 5.7 1.0---- 0.0------------
1996-08-23 21.2 26.4 17.5 14.8 76.3- 3.7 3.7---- 0.0------------
1996-08-24 20.9 28.4 14.0 12.7 72.0- 2.7 2.7---- 0.0------------
1996-08-25 18.9 27.9 14.8 11.8 81.8- 5.7 4.0---- 36.0------------
1996-08-26 16.0 21.1 14.0 13.1 87.8- 6.0 5.0---- 5.5------------
1996-08-27 15.4 23.0 10.5 7.8 78.8- 6.0 1.3---- 0.0------------
1996-08-28 17.1 21.1 11.2 10.2 87.3- 4.7 2.7---- 0.0------------
1996-08-29 16.9 21.5 10.7 9.7 82.3- 5.7 2.3---- 0.0------------
1996-08-30 15.7 21.1 10.9 10.2 82.3- 4.7 1.3---- 0.0------------
1996-08-31 16.1 21.8 11.2 7.3 76.8- 3.3 2.0---- 0.0------------
1996-09-01 13.3 19.1 9.3 7.3 84.8- 5.0 1.0---- 0.0------------
1996-09-02 15.9 20.9 12.9 12.2 80.0- 5.0 2.7---- 0.0------------
1996-09-03 15.8 22.0 11.2 9.2 75.8- 3.7 1.7---- 0.0------------
1996-09-04 12.6 19.6 7.2 6.8 86.3- 5.7 1.7---- 0.0------------
1996-09-05 11.1 15.0 7.4 5.8 87.0- 3.3 2.7---- 2.2------------
1996-09-06 10.4 13.5 7.5 6.8 82.5- 3.7 2.7---- 2.8------------
1996-09-07 11.3 14.2 7.3 6.8 88.5- 7.3 5.3---- 1.8------------
1996-09-08 11.6 15.0 9.6 7.8 80.5- 5.3 5.3---- 0.0------------
1996-09-09 10.9 16.0 6.2 4.8 86.8- 8.0 2.7---- 3.0------------
1996-09-10 9.1 14.5 6.4 5.8 84.8- 8.0 2.3---- 8.2------------
1996-09-11 8.0 10.4 6.2 5.8 72.3- 5.3 2.0---- 0.0------------
307.3 ms

 

Źródłem pochodzenia danych jest Instytut Meteorologii i Gospodarki Wodnej – Państwowy Instytut Badawczy. Dane Instytutu Meteorologii i Gospodarki Wodnej – Państwowego Instytutu Badawczego zostały przetworzone.

Dane źródłowe można odnaleźć na stronie https://dane.imgw.pl